Time;durP1;ratioP1;P1;durP2;ratioP2;P2;SDS_P1;SDS_P2;PMS_P1;PMS_P2;Temp;Humidity;BMP_temperature;BMP_pressure;BME280_temperature;BME280_humidity;BME280_pressure;Samples;Min_cycle;Max_cycle;Signal;HPM_P1;HPM_P2
2021/06/06 00:00:20;;;;;;;10.20;9.20;;;22.90;65.40;;;;;;5014194;28;20484;-50
2021/06/06 00:02:46;;;;;;;10.80;9.53;;;22.90;65.10;;;;;;5017925;28;20216;-47
2021/06/06 00:05:13;;;;;;;11.30;9.40;;;23.00;65.10;;;;;;5017578;28;20940;-50
2021/06/06 00:07:38;;;;;;;9.90;9.00;;;23.00;64.80;;;;;;5015986;28;20448;-50
2021/06/06 00:10:05;;;;;;;12.93;9.10;;;23.10;64.60;;;;;;5012705;28;20459;-46
2021/06/06 00:12:32;;;;;;;11.53;10.33;;;23.20;64.40;;;;;;5014027;28;20200;-47
2021/06/06 00:14:58;;;;;;;11.00;9.90;;;23.30;64.30;;;;;;5015456;28;20452;-49
2021/06/06 00:17:24;;;;;;;8.70;7.70;;;23.30;64.00;;;;;;5014967;28;20483;-50
2021/06/06 00:19:49;;;;;;;12.03;9.20;;;23.30;63.70;;;;;;5012973;28;20213;-51
2021/06/06 00:22:15;;;;;;;8.73;7.67;;;23.50;63.40;;;;;;5022946;28;20281;-48
2021/06/06 00:24:40;;;;;;;9.87;8.93;;;23.40;63.00;;;;;;5017926;28;20206;-46
2021/06/06 00:27:08;;;;;;;8.97;8.07;;;23.30;62.80;;;;;;5034838;28;20273;-48
2021/06/06 00:29:34;;;;;;;9.47;8.57;;;23.30;62.90;;;;;;5035837;28;20225;-48
2021/06/06 00:31:59;;;;;;;9.93;8.80;;;23.30;62.90;;;;;;5023486;28;21696;-46
2021/06/06 00:34:26;;;;;;;7.70;7.00;;;23.20;63.00;;;;;;5013673;28;20448;-46
2021/06/06 00:36:52;;;;;;;11.10;7.80;;;23.10;63.10;;;;;;5018432;28;20281;-49
2021/06/06 00:39:17;;;;;;;11.30;5.53;;;23.20;62.80;;;;;;5027779;28;20518;-47
2021/06/06 00:41:46;;;;;;;9.23;6.40;;;23.20;62.00;;;;;;5028342;28;20233;-46
2021/06/06 00:44:12;;;;;;;8.47;7.67;;;23.40;61.10;;;;;;5021245;28;20205;-47
2021/06/06 00:46:38;;;;;;;9.53;8.63;;;23.50;60.30;;;;;;5022262;28;20441;-46
2021/06/06 00:49:06;;;;;;;7.60;6.90;;;23.60;60.40;;;;;;5016290;28;20837;-51
2021/06/06 00:51:47;;;;;;;8.57;7.57;;;23.50;60.80;;;;;;5030890;28;20206;-46
2021/06/06 00:54:20;;;;;;;8.23;7.40;;;23.60;60.10;;;;;;5017462;28;20966;-47
2021/06/06 00:56:51;;;;;;;8.23;7.43;;;23.60;60.00;;;;;;5026150;28;20459;-46
2021/06/06 00:59:20;;;;;;;7.50;6.70;;;23.60;59.80;;;;;;5012655;28;20440;-47
2021/06/06 01:01:45;;;;;;;7.20;6.50;;;23.70;59.60;;;;;;5016239;28;20480;-49
2021/06/06 01:04:12;;;;;;;8.13;7.40;;;23.70;59.50;;;;;;5012040;28;20459;-48
2021/06/06 01:06:42;;;;;;;7.10;6.40;;;23.90;59.40;;;;;;5019045;28;20539;-47
2021/06/06 01:09:10;;;;;;;7.13;5.33;;;23.80;59.40;;;;;;5015933;28;20437;-48
2021/06/06 01:12:05;;;;;;;8.00;6.80;;;23.90;59.00;;;;;;5013010;28;20448;-49
2021/06/06 01:14:56;;;;;;;5.30;4.80;;;24.00;58.70;;;;;;5011089;28;20563;-50
2021/06/06 01:17:31;;;;;;;6.63;5.93;;;24.20;58.00;;;;;;5012897;28;20486;-48
2021/06/06 01:20:29;;;;;;;8.20;6.60;;;24.40;57.80;;;;;;5015973;28;20479;-47
2021/06/06 01:23:05;;;;;;;6.00;5.40;;;24.40;57.80;;;;;;5016283;28;20456;-49
2021/06/06 01:25:42;;;;;;;6.67;6.00;;;24.50;57.60;;;;;;5013606;28;20476;-46
2021/06/06 01:28:19;;;;;;;7.40;6.70;;;24.30;57.90;;;;;;5021824;28;20491;-47
2021/06/06 01:30:49;;;;;;;5.73;5.20;;;24.30;58.10;;;;;;5018338;28;20610;-51
2021/06/06 01:33:22;;;;;;;5.87;5.30;;;24.30;58.20;;;;;;5009402;28;20569;-50
2021/06/06 01:36:14;;;;;;;7.00;6.40;;;24.20;58.10;;;;;;5014458;28;20474;-46
2021/06/06 01:38:47;;;;;;;8.93;7.10;;;24.20;58.20;;;;;;5030778;28;20479;-47
2021/06/06 01:41:17;;;;;;;6.13;5.63;;;24.20;58.20;;;;;;5018464;28;20542;-47
2021/06/06 01:43:50;;;;;;;5.20;4.77;;;24.20;58.40;;;;;;5012762;28;20444;-49
2021/06/06 01:46:30;;;;;;;4.90;4.50;;;24.30;58.10;;;;;;5017104;28;20449;-47
2021/06/06 01:48:57;;;;;;;5.73;5.23;;;24.30;57.40;;;;;;5011308;28;20436;-49
2021/06/06 01:51:36;;;;;;;5.37;4.87;;;24.40;57.10;;;;;;5020286;28;20458;-46
2021/06/06 01:54:05;;;;;;;4.80;4.40;;;24.60;56.80;;;;;;5015849;28;20448;-50
2021/06/06 01:56:35;;;;;;;4.40;4.00;;;24.70;56.50;;;;;;5017176;28;20435;-46
2021/06/06 01:59:08;;;;;;;5.97;5.47;;;24.80;56.20;;;;;;5027603;28;20444;-48
2021/06/06 02:01:34;;;;;;;4.90;4.50;;;24.90;56.00;;;;;;5020638;28;20491;-48
2021/06/06 02:04:01;;;;;;;4.60;4.10;;;24.90;55.90;;;;;;5024398;28;20455;-47
2021/06/06 02:06:33;;;;;;;5.33;4.83;;;25.00;55.80;;;;;;5013810;28;20504;-51
2021/06/06 02:09:03;;;;;;;4.80;4.40;;;25.00;55.60;;;;;;5014382;28;20439;-46
2021/06/06 02:11:37;;;;;;;5.00;4.60;;;25.10;55.40;;;;;;5042002;28;20868;-47
2021/06/06 02:14:10;;;;;;;4.50;4.10;;;25.20;55.60;;;;;;5014195;28;20448;-51
2021/06/06 02:16:40;;;;;;;4.77;4.37;;;25.20;55.30;;;;;;5022239;28;20448;-49
2021/06/06 02:19:06;;;;;;;5.17;4.50;;;25.20;55.10;;;;;;5029995;28;20493;-47
2021/06/06 02:21:32;;;;;;;6.00;5.43;;;25.20;55.00;;;;;;5019838;28;20521;-49
2021/06/06 02:23:58;;;;;;;4.73;4.33;;;25.30;54.90;;;;;;5019409;28;20490;-48
2021/06/06 02:26:28;;;;;;;4.60;4.20;;;25.30;55.00;;;;;;5025307;28;20201;-48
2021/06/06 02:29:03;;;;;;;4.37;3.97;;;25.20;54.90;;;;;;5021224;28;20205;-51
2021/06/06 02:31:34;;;;;;;4.30;3.90;;;25.30;54.90;;;;;;5032838;28;20538;-50
2021/06/06 02:34:05;;;;;;;4.17;3.77;;;25.20;54.90;;;;;;5023220;28;20447;-51
2021/06/06 02:36:33;;;;;;;4.00;3.70;;;25.20;54.90;;;;;;5031974;28;20981;-51
2021/06/06 02:39:05;;;;;;;6.97;6.27;;;25.20;55.00;;;;;;5026667;28;20439;-51
2021/06/06 02:41:38;;;;;;;4.10;3.70;;;25.30;55.70;;;;;;5020111;28;20492;-50
2021/06/06 02:44:06;;;;;;;7.90;6.77;;;25.20;55.20;;;;;;5016213;28;20436;-51
2021/06/06 02:46:34;;;;;;;6.90;6.30;;;25.20;55.20;;;;;;5028199;28;20494;-49
2021/06/06 02:49:05;;;;;;;7.87;7.07;;;25.20;55.70;;;;;;5029534;28;20810;-50
2021/06/06 02:51:34;;;;;;;7.10;6.40;;;24.90;56.40;;;;;;5014647;28;20455;-51
2021/06/06 02:54:05;;;;;;;7.53;6.83;;;24.70;57.10;;;;;;5023122;28;20582;-49
2021/06/06 02:56:36;;;;;;;7.47;6.77;;;24.30;57.80;;;;;;5027686;28;20436;-48
2021/06/06 02:59:32;;;;;;;6.53;5.90;;;24.00;58.60;;;;;;5028864;28;20448;-48
2021/06/06 03:02:02;;;;;;;7.43;6.73;;;23.70;59.40;;;;;;5018726;28;20498;-48
2021/06/06 03:04:32;;;;;;;8.00;7.20;;;23.50;59.90;;;;;;5025437;28;20443;-49
2021/06/06 03:06:59;;;;;;;9.03;8.13;;;23.30;60.50;;;;;;5020829;28;20448;-51
2021/06/06 03:09:25;;;;;;;8.83;7.60;;;23.20;60.90;;;;;;5027836;28;20456;-46
2021/06/06 03:11:54;;;;;;;7.43;6.73;;;23.10;61.30;;;;;;5026441;28;20519;-48
2021/06/06 03:14:22;;;;;;;8.60;7.43;;;23.10;61.70;;;;;;5019325;28;20194;-48
2021/06/06 03:17:05;;;;;;;8.70;7.80;;;23.00;62.00;;;;;;5022533;28;20475;-46
2021/06/06 03:19:34;;;;;;;8.87;7.97;;;22.90;62.30;;;;;;5020360;28;20539;-47
2021/06/06 03:22:02;;;;;;;8.47;7.57;;;22.80;62.70;;;;;;5025645;28;20475;-49
2021/06/06 03:24:52;;;;;;;8.83;7.60;;;22.70;63.00;;;;;;5023757;28;20447;-46
2021/06/06 03:27:21;;;;;;;7.90;7.03;;;22.60;63.10;;;;;;5019993;28;20447;-49
2021/06/06 03:30:00;;;;;;;7.90;7.17;;;22.50;63.50;;;;;;5015503;28;20460;-51
2021/06/06 03:32:31;;;;;;;9.70;8.70;;;22.50;63.30;;;;;;5026963;28;20498;-50
2021/06/06 03:34:56;;;;;;;8.30;7.50;;;22.40;63.50;;;;;;5020859;28;20477;-49
2021/06/06 03:37:25;;;;;;;8.50;7.70;;;22.40;63.60;;;;;;5017439;28;20448;-49
2021/06/06 03:39:52;;;;;;;11.20;8.20;;;22.30;63.90;;;;;;5020794;28;20250;-50
2021/06/06 03:42:18;;;;;;;8.87;7.73;;;22.30;64.10;;;;;;5016691;28;20444;-49
2021/06/06 03:44:44;;;;;;;7.60;6.80;;;22.30;64.20;;;;;;5013515;28;20456;-50
2021/06/06 03:47:10;;;;;;;11.67;8.10;;;22.20;64.30;;;;;;5020090;28;20189;-48
2021/06/06 03:49:36;;;;;;;7.90;7.20;;;22.10;64.50;;;;;;5019842;28;20235;-47
2021/06/06 03:52:04;;;;;;;9.73;6.93;;;22.00;64.50;;;;;;5020837;28;20835;-47
2021/06/06 03:54:29;;;;;;;7.57;6.80;;;22.00;64.60;;;;;;5016792;28;20433;-49
2021/06/06 03:56:55;;;;;;;7.40;5.80;;;21.90;64.70;;;;;;5015663;28;20505;-49
2021/06/06 03:59:22;;;;;;;6.43;5.67;;;21.70;64.90;;;;;;5020017;28;20217;-48
2021/06/06 04:01:48;;;;;;;11.50;6.67;;;21.70;64.80;;;;;;5016916;28;20567;-50
2021/06/06 04:04:14;;;;;;;8.57;6.03;;;21.70;65.40;;;;;;5013640;28;20455;-50
2021/06/06 04:06:40;;;;;;;6.30;5.70;;;21.50;65.70;;;;;;5013759;28;20985;-51
2021/06/06 04:09:07;;;;;;;6.80;5.57;;;21.50;65.60;;;;;;5014882;28;20190;-48
2021/06/06 04:11:34;;;;;;;8.47;5.73;;;21.50;65.80;;;;;;5016155;28;20437;-48
2021/06/06 04:14:00;;;;;;;5.67;4.50;;;21.40;65.90;;;;;;5015998;28;20466;-46
2021/06/06 04:16:26;;;;;;;8.53;5.47;;;21.30;66.00;;;;;;5016536;28;20448;-49
2021/06/06 04:18:52;;;;;;;7.70;4.33;;;21.30;66.70;;;;;;5016315;28;21040;-47
2021/06/06 04:21:21;;;;;;;6.27;4.17;;;21.30;66.60;;;;;;5016394;28;20224;-49
2021/06/06 04:23:47;;;;;;;5.80;4.70;;;21.40;66.20;;;;;;5013018;28;20293;-50
2021/06/06 04:26:13;;;;;;;4.40;4.00;;;21.40;66.00;;;;;;5017958;28;20522;-50
2021/06/06 04:28:39;;;;;;;5.40;4.47;;;21.50;66.00;;;;;;5017249;28;20444;-49
2021/06/06 04:31:05;;;;;;;4.50;4.10;;;21.50;65.80;;;;;;5013549;28;20452;-49
2021/06/06 04:33:31;;;;;;;5.40;4.37;;;21.40;66.00;;;;;;5016359;28;20681;-46
2021/06/06 04:35:57;;;;;;;4.60;4.20;;;21.40;66.70;;;;;;5014784;28;20954;-51
2021/06/06 04:38:26;;;;;;;5.20;4.70;;;21.40;66.00;;;;;;5015620;28;20445;-48
2021/06/06 04:40:54;;;;;;;5.20;4.70;;;21.50;65.80;;;;;;5017377;28;20224;-49
2021/06/06 04:43:19;;;;;;;5.40;4.90;;;21.40;65.90;;;;;;5017973;28;20490;-47
2021/06/06 04:45:45;;;;;;;7.13;4.27;;;21.40;65.90;;;;;;5028393;28;20437;-48
2021/06/06 04:48:16;;;;;;;4.77;3.93;;;21.40;65.90;;;;;;5021883;28;20688;-48
2021/06/06 04:50:44;;;;;;;5.83;4.43;;;21.40;66.30;;;;;;5027754;28;20299;-46
2021/06/06 04:53:10;;;;;;;4.87;4.47;;;21.40;66.30;;;;;;5020881;28;20471;-48
2021/06/06 04:55:36;;;;;;;4.40;4.00;;;21.40;66.30;;;;;;5020529;28;20967;-47
2021/06/06 04:58:03;;;;;;;5.20;3.60;;;21.20;66.60;;;;;;5016259;28;20440;-50
2021/06/06 05:00:30;;;;;;;4.87;4.03;;;21.30;66.80;;;;;;5020612;28;20218;-51
2021/06/06 05:02:56;;;;;;;5.27;4.37;;;21.30;66.40;;;;;;5018657;28;20459;-48
2021/06/06 05:05:23;;;;;;;4.47;4.07;;;21.40;66.30;;;;;;5014595;28;20436;-48
2021/06/06 05:07:58;;;;;;;4.90;4.40;;;21.30;66.50;;;;;;5019643;28;20559;-46
2021/06/06 05:10:27;;;;;;;7.07;4.60;;;21.40;66.70;;;;;;5015578;28;20453;-46
2021/06/06 05:12:52;;;;;;;5.13;4.10;;;21.40;67.00;;;;;;5014421;28;20501;-46
2021/06/06 05:15:20;;;;;;;5.23;4.73;;;21.30;66.80;;;;;;5011884;28;20929;-48
2021/06/06 05:17:46;;;;;;;4.83;4.40;;;21.30;66.90;;;;;;5013303;28;20271;-49
2021/06/06 05:20:14;;;;;;;4.63;4.23;;;21.40;66.70;;;;;;5012768;28;20478;-46
2021/06/06 05:22:39;;;;;;;4.53;4.13;;;21.40;66.60;;;;;;5011177;28;20436;-49
2021/06/06 05:25:07;;;;;;;5.47;4.13;;;21.30;66.00;;;;;;5018612;28;20794;-50
2021/06/06 05:27:35;;;;;;;5.87;4.80;;;21.20;66.40;;;;;;5014620;28;20232;-47
2021/06/06 05:30:01;;;;;;;4.60;4.20;;;21.20;67.00;;;;;;5013899;28;20436;-49
2021/06/06 05:32:26;;;;;;;5.27;4.87;;;21.20;67.10;;;;;;5015293;28;20915;-47
2021/06/06 05:34:52;;;;;;;4.77;4.30;;;21.30;66.90;;;;;;5011701;28;20448;-50
2021/06/06 05:37:18;;;;;;;6.37;4.33;;;21.30;66.90;;;;;;5014049;28;20194;-50
2021/06/06 05:39:44;;;;;;;5.70;4.87;;;21.30;66.60;;;;;;5016638;28;20272;-50
2021/06/06 05:42:10;;;;;;;5.77;5.17;;;21.30;66.50;;;;;;5014945;28;20458;-50
2021/06/06 05:44:36;;;;;;;6.13;5.20;;;21.30;66.40;;;;;;5014581;28;20216;-51
2021/06/06 05:47:04;;;;;;;6.63;4.73;;;21.30;66.50;;;;;;5014814;28;20447;-48
2021/06/06 05:49:29;;;;;;;5.97;5.37;;;21.30;66.80;;;;;;5015949;28;20441;-51
2021/06/06 05:51:55;;;;;;;8.20;5.87;;;21.20;67.30;;;;;;5017847;28;20475;-50
2021/06/06 05:54:21;;;;;;;5.40;4.90;;;21.20;67.60;;;;;;5012103;28;20276;-50
2021/06/06 05:56:47;;;;;;;5.97;5.40;;;21.30;67.70;;;;;;5019715;28;20238;-47
2021/06/06 05:59:12;;;;;;;6.27;5.40;;;21.40;67.70;;;;;;5023424;28;20269;-50
2021/06/06 06:01:38;;;;;;;6.43;5.83;;;21.40;67.50;;;;;;5018551;28;20575;-51
2021/06/06 06:04:04;;;;;;;6.33;5.50;;;21.40;67.50;;;;;;5020512;28;20638;-51
2021/06/06 06:06:30;;;;;;;7.53;6.13;;;21.40;67.30;;;;;;5018102;28;20281;-47
2021/06/06 06:08:55;;;;;;;6.87;6.20;;;21.60;67.50;;;;;;5022549;28;20205;-51
2021/06/06 06:11:22;;;;;;;6.77;5.90;;;21.60;67.20;;;;;;5019374;28;20196;-51
2021/06/06 06:13:49;;;;;;;6.93;6.23;;;21.60;67.10;;;;;;5019574;28;20201;-48
2021/06/06 06:16:16;;;;;;;6.20;5.60;;;21.60;67.20;;;;;;5017179;28;20929;-51
2021/06/06 06:18:42;;;;;;;9.73;6.70;;;21.50;67.10;;;;;;5014381;28;22527;-48
2021/06/06 06:21:12;;;;;;;7.70;5.97;;;21.50;67.30;;;;;;5015830;28;20850;-50
2021/06/06 06:23:38;;;;;;;7.00;6.30;;;21.50;67.50;;;;;;5014657;28;20834;-51
2021/06/06 06:26:05;;;;;;;9.90;8.17;;;21.50;67.50;;;;;;5017738;28;20452;-50
2021/06/06 06:28:31;;;;;;;7.80;7.07;;;21.50;68.40;;;;;;5019910;28;20193;-47
2021/06/06 06:30:57;;;;;;;7.50;6.10;;;21.40;68.00;;;;;;5023149;28;20922;-47
2021/06/06 06:33:23;;;;;;;7.00;6.30;;;21.20;68.20;;;;;;5019249;28;20622;-50
2021/06/06 06:35:49;;;;;;;6.70;5.93;;;21.30;68.20;;;;;;5015675;28;20443;-49
2021/06/06 06:38:15;;;;;;;8.13;7.33;;;21.40;68.20;;;;;;5017983;28;20442;-48
2021/06/06 06:40:40;;;;;;;7.63;6.43;;;21.40;67.90;;;;;;5020402;28;20750;-49
2021/06/06 06:43:07;;;;;;;7.70;7.00;;;21.50;67.90;;;;;;5025603;28;20428;-50
2021/06/06 06:45:37;;;;;;;7.27;6.23;;;21.50;68.00;;;;;;5023769;28;20250;-48
2021/06/06 06:48:09;;;;;;;8.13;6.80;;;21.30;68.20;;;;;;5020078;28;20503;-46
2021/06/06 06:50:35;;;;;;;7.80;6.87;;;21.30;68.50;;;;;;5017068;28;20448;-50
2021/06/06 06:53:01;;;;;;;8.07;6.93;;;21.40;68.50;;;;;;5026324;28;20442;-47
2021/06/06 06:55:27;;;;;;;8.57;6.70;;;21.40;68.60;;;;;;5029197;28;20196;-50
2021/06/06 06:57:55;;;;;;;8.40;7.33;;;21.50;68.40;;;;;;5026735;28;20458;-46
2021/06/06 07:00:43;;;;;;;10.60;7.23;;;21.60;68.40;;;;;;5022977;28;20558;-46
2021/06/06 07:03:12;;;;;;;7.17;6.10;;;21.60;68.50;;;;;;5020137;28;20497;-47
2021/06/06 07:05:38;;;;;;;7.67;6.87;;;21.60;68.40;;;;;;5027137;28;20807;-46
2021/06/06 07:08:11;;;;;;;7.47;6.10;;;21.70;68.30;;;;;;5021952;28;21011;-50
2021/06/06 07:10:39;;;;;;;7.43;6.40;;;21.70;68.10;;;;;;5027167;28;20471;-46
2021/06/06 07:13:06;;;;;;;6.20;5.60;;;21.70;68.20;;;;;;5021245;28;20824;-47
2021/06/06 07:15:32;;;;;;;7.13;6.43;;;21.60;68.30;;;;;;5019994;28;20448;-49
2021/06/06 07:17:58;;;;;;;7.27;6.40;;;21.50;68.60;;;;;;5034313;28;20826;-46
2021/06/06 07:20:29;;;;;;;7.50;5.70;;;21.50;68.80;;;;;;5031899;28;20479;-49
2021/06/06 07:22:56;;;;;;;7.10;6.40;;;21.60;68.60;;;;;;5027867;28;20429;-47
2021/06/06 07:25:23;;;;;;;5.97;5.37;;;21.50;68.80;;;;;;5023955;28;20948;-46
2021/06/06 07:27:50;;;;;;;6.87;6.10;;;21.50;68.90;;;;;;5028081;28;20443;-50
2021/06/06 07:30:27;;;;;;;6.60;4.97;;;21.50;69.10;;;;;;5025392;28;20452;-46
2021/06/06 07:32:54;;;;;;;6.83;6.07;;;21.50;69.10;;;;;;5040825;28;20446;-46
2021/06/06 07:35:23;;;;;;;5.97;5.40;;;21.40;69.40;;;;;;5030520;28;20450;-51
2021/06/06 07:37:50;;;;;;;6.03;5.40;;;21.40;69.20;;;;;;5029537;28;20439;-51
2021/06/06 07:40:16;;;;;;;8.60;6.30;;;21.40;69.50;;;;;;5021569;28;20490;-46
2021/06/06 07:42:42;;;;;;;9.97;6.90;;;21.50;69.00;;;;;;5019009;28;20437;-47
2021/06/06 07:45:11;;;;;;;7.37;6.67;;;21.50;69.10;;;;;;5022912;28;20440;-48
2021/06/06 07:47:40;;;;;;;6.97;6.37;;;21.40;69.50;;;;;;5023787;28;20814;-50
2021/06/06 07:50:07;;;;;;;8.00;6.47;;;21.50;69.60;;;;;;5026513;28;20444;-46
2021/06/06 07:52:35;;;;;;;8.13;7.33;;;21.50;69.20;;;;;;5028226;28;20440;-47
2021/06/06 07:55:04;;;;;;;11.40;10.20;;;21.50;69.00;;;;;;5015271;28;20511;-50
2021/06/06 07:57:29;;;;;;;13.13;11.83;;;21.40;69.50;;;;;;5022018;28;20444;-46
2021/06/06 07:59:55;;;;;;;9.40;8.40;;;21.50;69.40;;;;;;5021958;28;20448;-45
2021/06/06 08:02:20;;;;;;;10.40;9.13;;;21.50;69.60;;;;;;5029095;28;20208;-48
2021/06/06 08:04:46;;;;;;;11.47;8.67;;;21.50;69.50;;;;;;5019012;28;20605;-50
2021/06/06 08:07:11;;;;;;;10.20;8.93;;;21.60;69.70;;;;;;5029590;28;20239;-46
2021/06/06 08:09:37;;;;;;;12.77;9.30;;;21.40;69.70;;;;;;5025569;28;20200;-46
2021/06/06 08:12:03;;;;;;;11.77;8.73;;;21.40;69.70;;;;;;5018557;28;20198;-47
2021/06/06 08:14:29;;;;;;;13.07;10.60;;;21.50;69.60;;;;;;5026243;28;20225;-46
2021/06/06 08:16:54;;;;;;;15.83;11.30;;;21.40;70.70;;;;;;5022275;28;20511;-47
2021/06/06 08:19:20;;;;;;;13.33;10.20;;;21.40;70.00;;;;;;5027037;28;20189;-46
2021/06/06 08:21:47;;;;;;;14.50;12.40;;;21.50;70.00;;;;;;5030202;28;20228;-47
2021/06/06 08:24:13;;;;;;;35.93;30.60;;;21.50;70.10;;;;;;5024661;28;20649;-48
2021/06/06 08:26:40;;;;;;;16.43;13.43;;;21.30;70.50;;;;;;5020733;28;20496;-48
2021/06/06 08:29:09;;;;;;;13.63;10.87;;;21.40;70.80;;;;;;5019165;28;20236;-47
2021/06/06 08:31:37;;;;;;;14.70;11.20;;;21.40;70.70;;;;;;5025372;28;20437;-46
2021/06/06 08:34:05;;;;;;;14.03;11.07;;;21.40;70.90;;;;;;5022216;28;20435;-47
2021/06/06 08:36:43;;;;;;;13.50;10.57;;;21.40;70.90;;;;;;5020432;28;20429;-47
2021/06/06 08:39:14;;;;;;;15.33;11.50;;;21.30;71.00;;;;;;5025412;28;20435;-46
2021/06/06 08:41:55;;;;;;;14.73;10.33;;;21.30;71.00;;;;;;5028727;28;20484;-47
2021/06/06 08:44:30;;;;;;;11.47;9.57;;;21.40;70.90;;;;;;5022905;28;20437;-46
2021/06/06 08:47:14;;;;;;;17.60;10.60;;;21.30;71.00;;;;;;5023649;28;20495;-51
2021/06/06 08:49:52;;;;;;;12.17;10.40;;;21.40;70.90;;;;;;5026009;28;20440;-51
2021/06/06 08:52:53;;;;;;;14.43;11.40;;;21.30;71.20;;;;;;5028868;28;20447;-50
2021/06/06 08:55:43;;;;;;;13.20;10.83;;;21.50;71.20;;;;;;5029200;28;20432;-50
2021/06/06 08:58:38;;;;;;;15.50;11.60;;;21.50;70.70;;;;;;5021564;28;20448;-50
2021/06/06 09:01:38;;;;;;;14.50;10.37;;;21.50;70.80;;;;;;5018376;28;20487;-50
2021/06/06 09:04:21;;;;;;;16.27;11.20;;;21.50;70.70;;;;;;5028468;28;21014;-51
2021/06/06 09:06:48;;;;;;;13.40;11.00;;;21.50;70.60;;;;;;5019342;28;20428;-52
2021/06/06 09:09:16;;;;;;;15.87;12.13;;;21.50;70.80;;;;;;5024817;28;20447;-53
2021/06/06 09:11:42;;;;;;;14.57;11.30;;;21.50;70.90;;;;;;5025073;28;20513;-49
2021/06/06 09:14:07;;;;;;;16.20;11.83;;;21.50;70.80;;;;;;5030814;28;20439;-51
2021/06/06 09:16:48;;;;;;;15.90;14.20;;;21.50;70.90;;;;;;5020133;28;20444;-51
2021/06/06 09:19:15;;;;;;;18.20;13.07;;;21.50;71.10;;;;;;5018977;28;20228;-49
2021/06/06 09:22:07;;;;;;;16.63;13.63;;;21.40;71.60;;;;;;5021961;28;20521;-47
2021/06/06 09:24:41;;;;;;;18.57;13.63;;;21.50;71.60;;;;;;5027011;28;20544;-50
2021/06/06 09:27:20;;;;;;;20.07;15.83;;;21.60;71.50;;;;;;5025743;28;20519;-51
2021/06/06 09:29:58;;;;;;;22.53;15.37;;;21.50;71.20;;;;;;5024192;28;20435;-47
2021/06/06 09:32:24;;;;;;;20.70;15.60;;;21.60;71.20;;;;;;5021522;28;20487;-49
2021/06/06 09:35:05;;;;;;;19.83;16.43;;;21.60;71.60;;;;;;5021579;28;20816;-49
2021/06/06 09:37:34;;;;;;;19.80;15.30;;;21.50;71.80;;;;;;5029528;28;20194;-46
2021/06/06 09:40:07;;;;;;;20.03;16.70;;;21.50;71.80;;;;;;5025131;28;20444;-47
2021/06/06 09:42:47;;;;;;;21.80;16.53;;;21.50;71.60;;;;;;5015850;28;20436;-48
2021/06/06 09:45:12;;;;;;;23.77;17.87;;;21.50;71.80;;;;;;5026211;28;20459;-51
2021/06/06 09:47:38;;;;;;;20.30;15.90;;;21.40;72.00;;;;;;5029436;28;20447;-49
2021/06/06 09:50:17;;;;;;;20.33;15.60;;;21.40;71.80;;;;;;5029085;28;20201;-47
2021/06/06 09:52:46;;;;;;;19.77;16.60;;;21.30;72.30;;;;;;5029361;28;20522;-49
2021/06/06 09:55:27;;;;;;;25.60;20.00;;;21.10;72.60;;;;;;5030651;28;20444;-48
2021/06/06 09:58:06;;;;;;;22.10;18.00;;;21.20;72.90;;;;;;5030050;28;20506;-48
2021/06/06 10:00:40;;;;;;;19.77;16.90;;;21.30;72.40;;;;;;5027313;28;20556;-49
2021/06/06 10:03:19;;;;;;;23.00;18.50;;;21.40;72.30;;;;;;5016889;28;20436;-51
2021/06/06 10:05:45;;;;;;;20.30;18.07;;;21.30;72.70;;;;;;5029854;28;20415;-47
2021/06/06 10:08:21;;;;;;;22.57;17.00;;;21.30;72.50;;;;;;5020559;28;20778;-48
2021/06/06 10:11:10;;;;;;;22.90;17.60;;;21.30;72.60;;;;;;5024574;28;20190;-48
2021/06/06 10:13:38;;;;;;;23.13;19.40;;;21.40;72.30;;;;;;5013015;28;20526;-50
2021/06/06 10:16:14;;;;;;;24.53;18.07;;;21.40;72.40;;;;;;5019111;28;20446;-47
2021/06/06 10:18:45;;;;;;;24.33;19.70;;;21.40;72.60;;;;;;5017158;28;20546;-47
2021/06/06 10:21:38;;;;;;;25.23;20.23;;;21.50;72.20;;;;;;5021795;28;20492;-46
2021/06/06 10:24:12;;;;;;;25.90;19.70;;;21.50;72.00;;;;;;5025582;28;20444;-47
2021/06/06 10:26:45;;;;;;;26.63;20.67;;;21.60;72.10;;;;;;5025729;28;20472;-48
2021/06/06 10:29:42;;;;;;;27.80;22.40;;;21.70;72.10;;;;;;5039627;28;20457;-46
2021/06/06 10:32:22;;;;;;;30.03;22.40;;;21.50;72.20;;;;;;5005679;28;20448;-50
2021/06/06 10:34:52;;;;;;;27.33;22.27;;;21.40;72.80;;;;;;5013393;28;20490;-47
2021/06/06 10:37:18;;;;;;;27.00;22.70;;;21.40;72.90;;;;;;5019050;28;20431;-50
2021/06/06 10:39:54;;;;;;;25.03;22.10;;;21.40;73.40;;;;;;5016727;28;20495;-52
2021/06/06 10:42:26;;;;;;;25.53;21.57;;;21.50;73.10;;;;;;5016526;28;20623;-51
2021/06/06 10:45:07;;;;;;;25.00;21.63;;;21.60;72.90;;;;;;5026310;28;20432;-51
2021/06/06 10:48:01;;;;;;;28.13;22.17;;;21.60;72.60;;;;;;5026672;28;20522;-52
2021/06/06 10:50:29;;;;;;;29.73;22.53;;;21.70;72.30;;;;;;5028502;28;20447;-47
2021/06/06 10:53:35;;;;;;;30.60;22.70;;;21.60;72.50;;;;;;5023577;28;20471;-51
2021/06/06 10:56:27;;;;;;;26.47;23.27;;;21.50;73.00;;;;;;5015898;28;20440;-48
2021/06/06 10:58:59;;;;;;;25.30;22.17;;;21.50;73.50;;;;;;5027748;28;21150;-51
2021/06/06 11:01:48;;;;;;;28.57;24.10;;;21.50;73.60;;;;;;5013314;28;20479;-49
2021/06/06 11:04:24;;;;;;;31.10;25.17;;;21.70;73.20;;;;;;5020750;28;20498;-47
2021/06/06 11:07:01;;;;;;;30.90;24.33;;;21.80;73.00;;;;;;5027161;28;20454;-50
2021/06/06 11:09:31;;;;;;;23.33;19.47;;;21.80;72.50;;;;;;5024073;28;20435;-47
2021/06/06 11:12:12;;;;;;;29.97;23.53;;;21.70;72.30;;;;;;5032257;28;20436;-47
2021/06/06 11:14:49;;;;;;;33.63;27.40;;;21.70;72.50;;;;;;5028687;28;20515;-51
2021/06/06 11:17:30;;;;;;;38.93;28.43;;;21.70;72.40;;;;;;5026615;28;20479;-50
2021/06/06 11:20:29;;;;;;;37.90;28.07;;;21.80;72.40;;;;;;5014393;28;20936;-47
2021/06/06 11:22:56;;;;;;;34.07;27.93;;;21.80;72.00;;;;;;5015051;28;20437;-47
2021/06/06 11:25:43;;;;;;;35.03;28.17;;;21.90;72.10;;;;;;5024752;28;20436;-51
2021/06/06 11:28:24;;;;;;;36.37;28.57;;;21.90;72.30;;;;;;5026329;28;20985;-48
2021/06/06 11:30:52;;;;;;;36.37;26.37;;;22.00;71.90;;;;;;5020148;28;20489;-52
2021/06/06 11:33:44;;;;;;;36.60;29.83;;;21.90;71.90;;;;;;5028039;28;20444;-50
2021/06/06 11:36:11;;;;;;;36.63;30.30;;;22.00;71.70;;;;;;5026974;28;20487;-49
2021/06/06 11:38:45;;;;;;;41.37;30.67;;;21.90;71.30;;;;;;5024964;28;20974;-50
2021/06/06 11:41:37;;;;;;;42.40;32.20;;;21.80;72.30;;;;;;5030496;28;20502;-47
2021/06/06 11:44:46;;;;;;;40.57;30.73;;;21.70;72.90;;;;;;5028206;28;20794;-52
2021/06/06 11:47:28;;;;;;;44.53;31.70;;;21.50;73.50;;;;;;5018184;28;20448;-51
2021/06/06 11:50:26;;;;;;;48.80;32.87;;;21.60;73.40;;;;;;5018217;28;20467;-52
2021/06/06 11:52:58;;;;;;;41.97;31.70;;;21.60;73.20;;;;;;5011432;28;20536;-51
2021/06/06 11:55:24;;;;;;;40.43;30.53;;;21.50;74.10;;;;;;5022072;28;20851;-48
2021/06/06 11:58:12;;;;;;;42.40;30.70;;;21.70;73.50;;;;;;5019578;28;20448;-48
2021/06/06 12:00:40;;;;;;;45.23;33.30;;;21.60;72.80;;;;;;5024891;28;20221;-51
2021/06/06 12:03:14;;;;;;;40.93;31.27;;;21.50;73.60;;;;;;5019832;28;20965;-50
2021/06/06 12:05:59;;;;;;;43.43;32.57;;;21.50;73.50;;;;;;5010360;28;20457;-51
2021/06/06 12:08:29;;;;;;;47.97;33.00;;;21.50;73.80;;;;;;5015268;28;20446;-47
2021/06/06 12:10:57;;;;;;;45.13;32.10;;;21.70;73.50;;;;;;5021465;28;20437;-50
2021/06/06 12:13:34;;;;;;;45.43;32.43;;;21.60;73.20;;;;;;5019995;28;20440;-51
2021/06/06 12:16:07;;;;;;;44.60;30.50;;;21.70;73.20;;;;;;5028152;28;20470;-49
2021/06/06 12:18:33;;;;;;;41.40;31.47;;;21.80;73.00;;;;;;5026723;28;20473;-48
2021/06/06 12:21:02;;;;;;;41.87;31.33;;;21.80;72.80;;;;;;5018251;28;20578;-47
2021/06/06 12:23:30;;;;;;;40.00;28.93;;;21.70;72.80;;;;;;5030809;28;20805;-47
2021/06/06 12:26:15;;;;;;;40.80;31.17;;;21.70;73.20;;;;;;5030056;28;20420;-46
2021/06/06 12:28:46;;;;;;;38.80;29.60;;;21.80;72.80;;;;;;5030449;28;20428;-46
2021/06/06 12:31:28;;;;;;;37.77;28.57;;;21.80;72.80;;;;;;5029911;28;20442;-49
2021/06/06 12:33:55;;;;;;;35.60;28.00;;;22.10;72.50;;;;;;5025093;28;20850;-50
2021/06/06 12:36:32;;;;;;;36.43;29.73;;;22.10;72.00;;;;;;5025748;28;20519;-48
2021/06/06 12:39:00;;;;;;;38.50;28.73;;;22.10;71.80;;;;;;5025186;28;20534;-48
2021/06/06 12:41:28;;;;;;;36.70;29.10;;;22.00;71.70;;;;;;5026492;28;20490;-48
2021/06/06 12:43:56;;;;;;;42.00;31.80;;;22.00;72.20;;;;;;5027185;28;20447;-48
2021/06/06 12:46:23;;;;;;;36.90;28.20;;;22.00;71.90;;;;;;5028625;28;20518;-48
2021/06/06 12:49:06;;;;;;;40.37;28.60;;;22.00;72.20;;;;;;5020142;28;20571;-47
2021/06/06 12:51:49;;;;;;;39.70;31.73;;;22.20;71.60;;;;;;5020214;28;20801;-48
2021/06/06 12:54:17;;;;;;;42.57;32.40;;;22.30;71.30;;;;;;5028634;28;20519;-50
2021/06/06 12:56:44;;;;;;;42.97;31.63;;;22.40;71.10;;;;;;5026295;28;20845;-53
2021/06/06 12:59:18;;;;;;;38.53;30.23;;;22.50;70.80;;;;;;5025994;28;20503;-47